Terminal Aerodrome Forecast
Issued by NWS Twin Cities, MN

Home | Current Version | Previous Version | Graphics & Text | Print | Product List | Glossary On
Versions: 1 2 3 4 5 6 7 8 9 10 11 12 13 14 15 16 17 18 19
000
FTUS43 KMPX 301725
TAFSTC
TAF
KSTC 301725Z 3018/3118 18011G17KT P6SM FEW200
     FM310000 17007KT P6SM SKC
     FM311000 17006KT P6SM SCT006
     FM311400 19015G21KT P6SM SKC=

USA.gov is the U.S. government's official web portal to all federal, state and local government web resources and services.